Time;durP1;ratioP1;P1;durP2;ratioP2;P2;SDS_P1;SDS_P2;PMS_P1;PMS_P2;Temp;Humidity;BMP_temperature;BMP_pressure;BME280_temperature;BME280_humidity;BME280_pressure;Samples;Min_cycle;Max_cycle;Signal;HPM_P1;HPM_P2
2022/07/22 00:01:51;;;;;;;6.80;4.45;;;;;;;24.79;49.73;95095.50;5001019;28;20296;-64
2022/07/22 00:04:18;;;;;;;5.70;4.15;;;;;;;24.82;50.25;95092.63;5000935;28;20215;-63
2022/07/22 00:06:45;;;;;;;6.70;4.30;;;;;;;24.86;50.11;95096.63;4998395;28;20276;-64
2022/07/22 00:09:11;;;;;;;5.03;4.60;;;;;;;24.83;50.14;95091.69;4999022;28;20672;-64
2022/07/22 00:11:40;;;;;;;7.68;4.38;;;;;;;24.77;49.85;95097.41;4999131;28;20203;-64
2022/07/22 00:14:06;;;;;;;7.53;4.88;;;;;;;24.80;49.71;95096.34;5000381;28;20215;-63
2022/07/22 00:16:33;;;;;;;4.95;4.15;;;;;;;24.86;49.52;95096.63;4998064;28;20600;-64
2022/07/22 00:19:00;;;;;;;6.68;4.45;;;;;;;24.75;50.29;95088.94;4998804;28;20243;-63
2022/07/22 00:21:27;;;;;;;4.97;4.50;;;;;;;24.49;50.86;95101.66;4995321;28;20905;-64
2022/07/22 00:23:54;;;;;;;9.07;4.65;;;;;;;24.20;51.60;95095.56;5001133;28;20210;-64
2022/07/22 00:26:20;;;;;;;5.90;5.07;;;;;;;24.33;51.17;95099.56;5000352;28;20242;-64
2022/07/22 00:28:49;;;;;;;8.07;4.30;;;;;;;24.44;51.02;95100.41;5000590;28;20203;-63
2022/07/22 00:31:15;;;;;;;8.35;4.65;;;;;;;24.51;50.99;95102.31;4996189;28;20207;-64
2022/07/22 00:33:42;;;;;;;6.80;4.80;;;;;;;24.45;51.16;95100.28;4999643;28;20199;-63
2022/07/22 00:36:09;;;;;;;5.93;4.10;;;;;;;24.26;51.35;95106.25;4999608;28;20203;-64
2022/07/22 00:38:36;;;;;;;7.35;4.20;;;;;;;23.83;52.79;95105.69;5000418;28;20873;-64
2022/07/22 00:41:03;;;;;;;5.72;5.10;;;;;;;23.41;54.08;95110.91;4997353;28;20878;-63
2022/07/22 00:43:54;;;;;;;5.82;4.20;;;;;;;23.04;55.03;95108.75;4999401;28;20292;-65
2022/07/22 00:46:21;;;;;;;10.82;4.22;;;;;;;23.13;55.16;95114.13;4999591;28;20328;-64
2022/07/22 00:48:48;;;;;;;7.38;4.72;;;;;;;23.29;54.65;95117.09;4999668;28;20206;-64
2022/07/22 00:51:15;;;;;;;9.15;4.38;;;;;;;23.46;54.32;95113.13;4995684;28;20308;-63
2022/07/22 00:53:41;;;;;;;6.10;4.53;;;;;;;23.36;54.43;95108.69;4998867;28;20749;-64
2022/07/22 00:56:08;;;;;;;10.93;4.55;;;;;;;23.20;55.18;95110.09;5000118;28;20786;-64
2022/07/22 00:58:36;;;;;;;5.22;4.28;;;;;;;22.98;55.76;95108.47;4998340;28;20682;-64
2022/07/22 01:01:05;;;;;;;4.75;4.35;;;;;;;22.88;56.17;95108.38;4999395;28;20223;-63
2022/07/22 01:03:31;;;;;;;11.57;4.55;;;;;;;23.12;55.17;95107.31;4999575;28;20203;-63
2022/07/22 01:05:58;;;;;;;5.40;5.00;;;;;;;23.35;54.23;95106.22;4997622;28;20692;-64
2022/07/22 01:08:25;;;;;;;7.10;4.65;;;;;;;23.56;53.83;95103.63;5000254;28;20261;-63
2022/07/22 01:10:52;;;;;;;7.60;5.13;;;;;;;23.70;53.40;95106.72;4998762;28;20851;-64
2022/07/22 01:13:19;;;;;;;6.28;4.30;;;;;;;23.78;53.70;95107.84;4998229;28;20630;-64
2022/07/22 01:15:45;;;;;;;7.03;4.82;;;;;;;23.46;54.15;95108.75;4999746;28;20231;-63
2022/07/22 01:18:14;;;;;;;5.90;4.90;;;;;;;23.48;54.13;95106.88;4998925;28;20198;-64
2022/07/22 01:20:42;;;;;;;10.70;4.43;;;;;;;23.70;53.65;95109.31;4997352;28;20199;-64
2022/07/22 01:23:09;;;;;;;7.82;5.05;;;;;;;23.78;53.38;95102.66;4998151;28;20273;-64
2022/07/22 01:25:35;;;;;;;8.77;4.55;;;;;;;23.74;53.71;95108.13;4998493;28;20211;-64
2022/07/22 01:28:02;;;;;;;5.78;4.60;;;;;;;23.46;54.20;95108.75;4997497;28;20314;-68
2022/07/22 01:30:29;;;;;;;7.15;4.93;;;;;;;23.03;55.86;95106.28;4997110;28;20207;-64
2022/07/22 01:32:56;;;;;;;5.32;4.30;;;;;;;22.80;56.40;95108.16;4997843;28;20276;-66
2022/07/22 01:35:23;;;;;;;9.82;4.85;;;;;;;23.07;55.80;95108.50;4997609;28;20272;-63
2022/07/22 01:37:51;;;;;;;6.82;3.95;;;;;;;23.41;54.59;95110.91;4996785;28;20705;-63
2022/07/22 01:40:18;;;;;;;5.65;4.82;;;;;;;23.53;54.24;95109.91;4998681;28;20269;-64
2022/07/22 01:42:45;;;;;;;7.53;4.93;;;;;;;23.74;53.42;95108.13;4997883;28;20716;-63
2022/07/22 01:45:12;;;;;;;7.18;4.75;;;;;;;23.98;52.84;95107.81;5002709;28;20203;-64
2022/07/22 01:47:38;;;;;;;5.18;4.80;;;;;;;23.92;52.98;95105.72;5002516;28;20396;-64
2022/07/22 01:50:08;;;;;;;8.70;5.50;;;;;;;24.08;52.23;95105.22;5000819;28;20749;-64
2022/07/22 01:52:35;;;;;;;6.18;4.65;;;;;;;24.19;51.75;95107.72;5001560;28;20446;-64
2022/07/22 01:55:04;;;;;;;6.50;5.85;;;;;;;24.28;51.87;95108.72;5003114;28;20203;-64
2022/07/22 01:57:31;;;;;;;8.40;4.15;;;;;;;24.37;51.44;95105.31;5002177;28;20210;-64
2022/07/22 01:59:57;;;;;;;10.93;4.63;;;;;;;24.41;51.52;95114.50;5002002;28;20567;-64
2022/07/22 02:02:24;;;;;;;5.70;4.60;;;;;;;24.41;51.13;95112.72;4999797;28;20905;-64
2022/07/22 02:04:51;;;;;;;14.20;4.82;;;;;;;24.28;51.74;95112.13;5001388;28;20220;-63
2022/07/22 02:07:18;;;;;;;11.43;5.47;;;;;;;24.00;52.37;95123.25;5002171;28;20215;-64
2022/07/22 02:09:44;;;;;;;6.25;5.65;;;;;;;23.77;53.15;95129.53;5001562;28;20213;-64
2022/07/22 02:12:13;;;;;;;6.75;5.00;;;;;;;23.71;53.26;95129.13;5002113;28;20204;-64
2022/07/22 02:14:39;;;;;;;7.93;5.47;;;;;;;23.88;52.68;95129.47;5001952;28;20737;-64
2022/07/22 02:17:06;;;;;;;10.13;5.15;;;;;;;24.09;52.11;95127.63;5001260;28;20210;-63
2022/07/22 02:19:33;;;;;;;9.55;6.32;;;;;;;24.20;51.65;95127.53;5001923;28;20207;-63
2022/07/22 02:21:59;;;;;;;9.05;6.18;;;;;;;24.17;51.21;95130.41;5000733;28;20650;-64
2022/07/22 02:24:26;;;;;;;7.32;6.10;;;;;;;24.19;51.48;95127.69;5002375;28;20214;-65
2022/07/22 02:26:53;;;;;;;11.65;5.82;;;;;;;24.16;51.47;95133.13;5001668;28;20211;-64
2022/07/22 02:29:22;;;;;;;8.52;5.90;;;;;;;24.09;51.33;95128.47;5001967;28;20310;-64
2022/07/22 02:31:48;;;;;;;12.43;6.18;;;;;;;23.98;52.05;95130.34;5000567;28;20203;-64
2022/07/22 02:34:15;;;;;;;9.45;5.90;;;;;;;23.89;52.25;95126.75;5001606;28;20214;-63
2022/07/22 02:36:42;;;;;;;6.25;5.25;;;;;;;23.85;52.29;95125.34;5004329;28;20210;-64
2022/07/22 02:39:09;;;;;;;5.82;5.43;;;;;;;23.30;53.68;95126.53;4999413;28;20211;-63
2022/07/22 02:41:36;;;;;;;7.57;6.15;;;;;;;22.94;54.93;95126.03;5001611;28;21553;-64
2022/07/22 02:44:03;;;;;;;18.08;6.82;;;;;;;22.38;56.76;95128.75;4999867;28;20207;-64
2022/07/22 02:46:31;;;;;;;7.88;5.47;;;;;;;21.55;59.40;95125.72;5001557;28;20664;-64
2022/07/22 02:48:58;;;;;;;7.35;5.40;;;;;;;21.27;60.97;95124.41;4999765;28;20269;-66
2022/07/22 02:51:26;;;;;;;6.45;5.85;;;;;;;21.29;60.96;95119.09;5000338;28;20237;-64
2022/07/22 02:53:52;;;;;;;11.52;5.78;;;;;;;21.31;60.84;95127.56;5000306;28;20203;-63
2022/07/22 02:56:20;;;;;;;6.35;4.78;;;;;;;21.45;60.47;95127.38;5001956;28;20660;-65
2022/07/22 02:58:47;;;;;;;5.68;5.20;;;;;;;21.64;59.93;95129.38;5000885;28;20209;-64
2022/07/22 03:01:14;;;;;;;6.20;5.57;;;;;;;22.21;58.18;95128.44;4999485;28;20233;-64
2022/07/22 03:03:42;;;;;;;6.80;5.53;;;;;;;22.21;58.18;95126.69;5001641;28;20203;-63
2022/07/22 03:06:09;;;;;;;7.43;5.55;;;;;;;22.27;57.93;95131.34;5002014;28;20948;-64
2022/07/22 03:08:35;;;;;;;7.53;6.05;;;;;;;21.99;58.92;95134.44;5001540;28;20288;-63
2022/07/22 03:11:02;;;;;;;8.63;5.72;;;;;;;22.15;58.32;95127.16;5000309;28;20667;-64
2022/07/22 03:13:29;;;;;;;10.15;5.50;;;;;;;22.37;57.86;95127.13;5002823;28;20235;-64
2022/07/22 03:15:56;;;;;;;5.97;5.35;;;;;;;22.71;56.50;95124.44;5001801;28;20329;-64
2022/07/22 03:18:23;;;;;;;8.02;5.47;;;;;;;23.05;55.33;95125.94;5001254;28;20293;-64
2022/07/22 03:20:51;;;;;;;12.15;6.03;;;;;;;23.20;54.82;95129.06;5000108;28;20949;-64
2022/07/22 03:23:18;;;;;;;9.13;5.82;;;;;;;23.36;54.53;95128.63;5001140;28;20223;-64
2022/07/22 03:25:45;;;;;;;5.43;4.97;;;;;;;23.49;53.62;95126.66;5002007;28;20203;-63
2022/07/22 03:28:12;;;;;;;9.02;5.25;;;;;;;23.53;53.77;95122.88;5001680;28;20252;-64
2022/07/22 03:30:38;;;;;;;8.40;5.53;;;;;;;23.56;53.70;95134.78;4998283;28;20729;-64
2022/07/22 03:33:05;;;;;;;10.25;5.38;;;;;;;23.20;54.75;95136.03;5001388;28;20214;-64
2022/07/22 03:35:32;;;;;;;12.63;6.13;;;;;;;23.60;53.70;95136.97;5000640;28;20222;-64
2022/07/22 03:38:01;;;;;;;8.65;5.78;;;;;;;24.35;51.87;95126.25;5001854;28;20211;-63
2022/07/22 03:40:28;;;;;;;12.82;5.55;;;;;;;25.09;50.17;95128.38;4999376;28;20230;-63
2022/07/22 03:42:55;;;;;;;6.28;5.15;;;;;;;25.74;48.27;95130.19;5001071;28;20237;-63
2022/07/22 03:45:22;;;;;;;14.90;7.00;;;;;;;26.38;46.34;95139.00;4999853;28;20208;-63
2022/07/22 03:47:49;;;;;;;8.38;5.43;;;;;;;26.87;45.02;95144.75;5000583;28;20207;-64
2022/07/22 03:50:16;;;;;;;6.10;5.50;;;;;;;27.18;44.09;95142.59;4998645;28;20211;-63
2022/07/22 03:52:43;;;;;;;9.43;5.55;;;;;;;27.05;44.07;95143.78;4998811;28;20294;-63
2022/07/22 03:55:11;;;;;;;8.65;5.72;;;;;;;26.94;44.04;95141.41;5000197;28;21022;-63
2022/07/22 03:57:38;;;;;;;15.13;5.38;;;;;;;26.76;44.40;95148.38;5000213;28;20211;-62
2022/07/22 04:00:06;;;;;;;9.40;5.60;;;;;;;26.48;44.93;95146.78;4998590;28;20264;-62
2022/07/22 04:02:33;;;;;;;6.57;5.55;;;;;;;26.31;45.28;95145.75;4999564;28;20733;-63
2022/07/22 04:05:00;;;;;;;9.07;5.35;;;;;;;26.09;45.88;95149.53;5001598;28;20616;-63
2022/07/22 04:07:27;;;;;;;5.95;5.38;;;;;;;26.02;46.32;95148.47;5000307;28;20211;-63
2022/07/22 04:10:04;;;;;;;10.07;5.85;;;;;;;26.26;45.49;95151.38;4998004;28;21255;-63
2022/07/22 04:12:33;;;;;;;9.05;6.32;;;;;;;26.42;45.23;95162.03;5001575;28;20708;-63
2022/07/22 04:15:00;;;;;;;8.40;5.75;;;;;;;26.32;45.17;95153.44;5001839;28;20199;-64
2022/07/22 04:17:27;;;;;;;8.63;6.10;;;;;;;26.16;45.62;95155.81;4998909;28;20214;-63
2022/07/22 04:19:53;;;;;;;8.25;5.50;;;;;;;26.14;45.48;95152.53;4997806;28;20224;-63
2022/07/22 04:22:20;;;;;;;9.20;5.68;;;;;;;26.14;45.70;95152.53;4999158;28;20708;-64
2022/07/22 04:24:47;;;;;;;11.75;6.07;;;;;;;25.98;46.04;95152.34;5000008;28;20501;-64
2022/07/22 04:27:14;;;;;;;11.10;6.25;;;;;;;26.07;46.18;95146.25;5000654;28;20203;-64
2022/07/22 04:29:42;;;;;;;8.27;6.28;;;;;;;26.17;45.42;95162.69;4997570;28;20221;-64
2022/07/22 04:32:09;;;;;;;6.88;6.22;;;;;;;26.23;45.75;95167.28;4999490;28;20207;-63
2022/07/22 04:34:35;;;;;;;11.52;5.30;;;;;;;26.30;45.59;95168.38;4999533;28;20482;-64
2022/07/22 04:37:03;;;;;;;7.85;6.43;;;;;;;26.32;45.75;95166.47;5001298;28;20208;-64
2022/07/22 04:39:30;;;;;;;10.07;6.13;;;;;;;26.39;45.82;95164.94;4998230;28;20663;-64
2022/07/22 04:41:57;;;;;;;6.72;6.13;;;;;;;26.52;45.42;95166.34;4997855;28;20203;-65
2022/07/22 04:44:24;;;;;;;10.75;6.15;;;;;;;26.52;45.37;95174.19;4999896;28;20245;-63
2022/07/22 04:46:52;;;;;;;15.40;6.72;;;;;;;26.47;45.57;95160.78;4999206;28;21117;-62
2022/07/22 04:49:19;;;;;;;10.60;6.07;;;;;;;26.65;45.34;95170.28;4998710;28;20216;-63
2022/07/22 04:51:46;;;;;;;15.27;6.88;;;;;;;26.73;44.98;95182.56;4997212;28;20301;-62
2022/07/22 04:54:12;;;;;;;11.60;7.07;;;;;;;26.70;44.99;95177.66;4999489;28;20680;-63
2022/07/22 04:56:39;;;;;;;35.72;16.08;;;;;;;26.62;45.55;95172.34;4996004;28;20280;-64
2022/07/22 04:59:06;;;;;;;19.40;13.63;;;;;;;26.68;44.93;95174.38;4997977;28;20207;-63
2022/07/22 05:01:33;;;;;;;20.17;8.70;;;;;;;26.81;44.65;95182.66;4998871;28;20211;-64
2022/07/22 05:04:01;;;;;;;22.75;11.70;;;;;;;26.81;44.84;95172.22;4999598;28;20234;-62
2022/07/22 05:06:27;;;;;;;13.68;8.55;;;;;;;26.91;44.52;95188.63;4997844;28;20253;-63
2022/07/22 05:08:54;;;;;;;16.30;7.38;;;;;;;27.04;44.33;95183.88;4997631;28;20639;-63
2022/07/22 05:11:21;;;;;;;14.80;6.68;;;;;;;27.36;43.56;95185.97;4999130;28;20199;-63
2022/07/22 05:13:48;;;;;;;9.98;5.65;;;;;;;27.50;43.53;95184.59;4999847;28;20587;-63
2022/07/22 05:16:15;;;;;;;11.52;6.20;;;;;;;27.75;42.73;95183.84;4999074;28;20653;-63
2022/07/22 05:18:42;;;;;;;14.65;6.60;;;;;;;28.07;42.32;95177.19;4997411;28;20224;-64
2022/07/22 05:21:10;;;;;;;8.25;6.00;;;;;;;28.71;41.19;95186.28;4999133;28;20203;-63
2022/07/22 05:23:37;;;;;;;10.30;9.05;;;;;;;29.82;38.37;95181.53;4999641;28;20231;-63
2022/07/22 05:26:05;;;;;;;30.80;23.48;;;;;;;31.02;36.41;95182.09;4998219;28;20227;-63
2022/07/22 05:28:32;;;;;;;10.70;7.20;;;;;;;32.41;33.80;95179.97;4998137;28;20238;-66
2022/07/22 05:30:59;;;;;;;7.47;6.57;;;;;;;34.51;30.72;95179.50;4997634;28;20249;-64
2022/07/22 05:33:26;;;;;;;9.40;6.68;;;;;;;36.60;27.73;95180.97;4998763;28;20226;-63
2022/07/22 05:35:52;;;;;;;9.95;6.00;;;;;;;37.09;26.80;95181.16;4999137;28;20207;-64
2022/07/22 05:38:21;;;;;;;8.90;5.90;;;;;;;38.15;25.27;95175.13;4997477;28;20280;-64
2022/07/22 05:40:47;;;;;;;7.95;5.88;;;;;;;39.07;24.38;95168.78;4998543;28;20237;-64
2022/07/22 05:43:14;;;;;;;7.35;6.20;;;;;;;40.08;23.50;95169.72;4998869;28;20655;-64
2022/07/22 05:45:41;;;;;;;10.02;6.78;;;;;;;40.40;22.81;95167.50;4998543;28;20265;-64
2022/07/22 05:48:08;;;;;;;9.63;6.18;;;;;;;40.52;22.71;95180.81;4998021;28;20222;-64
2022/07/22 05:50:34;;;;;;;9.65;6.32;;;;;;;40.46;23.18;95177.22;4996870;28;20277;-67
2022/07/22 05:53:01;;;;;;;16.42;8.05;;;;;;;40.70;22.91;95177.97;4999041;28;20259;-63
2022/07/22 05:55:29;;;;;;;14.23;7.25;;;;;;;41.06;22.47;95182.19;4997817;28;20231;-64
2022/07/22 05:57:56;;;;;;;13.27;7.40;;;;;;;40.71;22.85;95174.28;4997791;28;20296;-65
2022/07/22 06:00:23;;;;;;;11.27;7.75;;;;;;;41.02;22.37;95155.31;4997193;28;20252;-64
2022/07/22 06:02:50;;;;;;;9.68;7.70;;;;;;;40.17;23.09;95168.31;4997711;28;20227;-64
2022/07/22 06:05:16;;;;;;;10.82;7.22;;;;;;;40.30;22.55;95173.41;4997732;28;20241;-64
2022/07/22 06:07:43;;;;;;;8.05;6.88;;;;;;;40.36;23.44;95171.66;4997833;28;20988;-64
2022/07/22 06:10:10;;;;;;;7.07;6.38;;;;;;;40.30;22.53;95169.94;4997854;28;20719;-64
2022/07/22 06:12:39;;;;;;;9.88;7.25;;;;;;;40.29;23.56;95165.66;4997961;28;20662;-65
2022/07/22 06:15:06;;;;;;;7.65;6.70;;;;;;;40.42;23.34;95171.56;4998477;28;20204;-63
2022/07/22 06:17:33;;;;;;;12.40;6.53;;;;;;;40.16;23.55;95166.69;4998085;28;20683;-64
2022/07/22 06:20:00;;;;;;;13.40;6.25;;;;;;;40.13;23.23;95177.78;4997961;28;20285;-64
2022/07/22 06:22:27;;;;;;;16.55;6.72;;;;;;;39.55;23.09;95170.56;4999087;28;20222;-64
2022/07/22 06:24:54;;;;;;;11.30;6.20;;;;;;;38.78;24.27;95172.22;4998533;28;20233;-66
2022/07/22 06:27:20;;;;;;;9.98;5.97;;;;;;;38.58;24.47;95176.97;4997480;28;20296;-65
2022/07/22 06:29:49;;;;;;;20.92;7.25;;;;;;;38.66;24.67;95176.63;4998185;28;20257;-65
2022/07/22 06:32:15;;;;;;;9.60;6.38;;;;;;;39.40;23.64;95172.78;5001794;28;20207;-66
2022/07/22 06:34:42;;;;;;;10.23;7.95;;;;;;;39.42;23.25;95173.38;5002612;28;20302;-65
2022/07/22 06:37:09;;;;;;;15.82;7.68;;;;;;;39.02;24.02;95175.81;5001988;28;20272;-64
2022/07/22 06:39:36;;;;;;;16.83;6.85;;;;;;;38.74;24.27;95173.69;4998455;28;20269;-65
2022/07/22 06:42:02;;;;;;;14.93;6.15;;;;;;;38.68;24.63;95172.72;5002093;28;21100;-65
2022/07/22 06:44:29;;;;;;;10.02;6.85;;;;;;;38.35;25.19;95175.75;5001233;28;20227;-65
2022/07/22 06:46:57;;;;;;;15.07;6.90;;;;;;;38.25;25.00;95167.47;5003390;28;20207;-65
2022/07/22 06:49:24;;;;;;;9.63;7.07;;;;;;;37.83;25.53;95171.72;4999807;28;20203;-65
2022/07/22 06:51:51;;;;;;;10.85;6.20;;;;;;;37.70;25.88;95167.34;5001273;28;20316;-68
2022/07/22 06:54:18;;;;;;;11.30;6.22;;;;;;;37.65;26.10;95167.16;5001742;28;20203;-65
2022/07/22 06:56:44;;;;;;;10.95;6.05;;;;;;;37.38;26.24;95171.00;5000809;28;20226;-65
2022/07/22 06:59:11;;;;;;;10.50;6.22;;;;;;;36.93;26.61;95176.34;5000219;28;20208;-64
2022/07/22 07:01:38;;;;;;;10.68;6.45;;;;;;;36.71;27.12;95172.34;5000593;28;20724;-65
2022/07/22 07:04:06;;;;;;;6.13;5.63;;;;;;;36.52;27.06;95173.25;5002269;28;20212;-65
2022/07/22 07:06:33;;;;;;;13.38;6.78;;;;;;;36.47;27.91;95177.31;5001335;28;20227;-66
2022/07/22 07:09:00;;;;;;;15.73;6.88;;;;;;;36.15;27.95;95172.88;4997610;28;21027;-63
2022/07/22 07:11:27;;;;;;;11.48;5.57;;;;;;;35.68;28.70;95174.75;5001420;28;20302;-62
2022/07/22 07:13:54;;;;;;;10.20;5.78;;;;;;;35.43;28.63;95176.34;5001590;28;20202;-65
2022/07/22 07:16:20;;;;;;;9.65;5.78;;;;;;;35.24;28.99;95174.47;5001317;28;20211;-64
2022/07/22 07:18:47;;;;;;;8.65;6.05;;;;;;;35.08;29.07;95179.13;4999372;28;20223;-63
2022/07/22 07:21:15;;;;;;;12.65;6.38;;;;;;;34.96;29.80;95169.31;5000496;28;20276;-64
2022/07/22 07:23:42;;;;;;;7.18;5.93;;;;;;;34.37;30.46;95181.25;5002028;28;20227;-65
2022/07/22 07:26:09;;;;;;;8.77;5.75;;;;;;;34.23;30.29;95176.88;5001239;28;21006;-64
2022/07/22 07:28:36;;;;;;;13.38;5.38;;;;;;;33.93;31.05;95176.28;5000564;28;20637;-61
2022/07/22 07:31:03;;;;;;;12.38;5.25;;;;;;;33.57;31.87;95175.56;4998156;28;20222;-63
2022/07/22 07:33:30;;;;;;;7.72;6.70;;;;;;;33.21;32.13;95180.88;4999764;28;20286;-63
2022/07/22 07:35:56;;;;;;;16.08;6.85;;;;;;;33.25;32.10;95179.50;5000953;28;20217;-63
2022/07/22 07:38:24;;;;;;;8.00;7.00;;;;;;;33.42;31.79;95173.81;4998796;28;20207;-64
2022/07/22 07:40:51;;;;;;;8.15;6.28;;;;;;;33.46;31.55;95174.25;4999816;28;20207;-63
2022/07/22 07:43:18;;;;;;;7.75;5.45;;;;;;;33.12;32.21;95177.56;4999030;28;20216;-63
2022/07/22 07:45:45;;;;;;;9.23;5.70;;;;;;;32.77;32.55;95173.94;5000216;28;20281;-65
2022/07/22 07:48:12;;;;;;;11.52;6.88;;;;;;;32.97;32.64;95174.16;5000584;28;20269;-64
2022/07/22 07:50:38;;;;;;;7.25;5.25;;;;;;;32.98;32.23;95184.50;4999796;28;20284;-64
2022/07/22 07:53:05;;;;;;;5.45;5.10;;;;;;;32.95;31.97;95174.34;4998296;28;20199;-68
2022/07/22 07:55:35;;;;;;;11.57;5.00;;;;;;;32.88;32.39;95181.38;4997379;28;20211;-63
2022/07/22 07:58:02;;;;;;;8.07;5.95;;;;;;;32.96;32.40;95183.84;5000874;28;20211;-64
2022/07/22 08:00:32;;;;;;;8.63;5.70;;;;;;;32.92;32.14;95177.34;4995650;28;20211;-63
2022/07/22 08:02:59;;;;;;;6.07;5.40;;;;;;;32.83;31.85;95177.66;5000387;28;20228;-62
2022/07/22 08:05:26;;;;;;;6.43;5.20;;;;;;;32.66;32.24;95179.66;5000790;28;20720;-62
2022/07/22 08:07:53;;;;;;;8.35;4.80;;;;;;;32.72;31.99;95173.63;5000432;28;20917;-62
2022/07/22 08:10:21;;;;;;;5.55;4.85;;;;;;;32.50;32.23;95185.09;4997554;28;20207;-63
2022/07/22 08:12:50;;;;;;;11.10;5.20;;;;;;;32.47;32.78;95184.47;5000087;28;20204;-64
2022/07/22 08:15:16;;;;;;;9.10;4.30;;;;;;;32.53;32.72;95176.84;5000073;28;20217;-64
2022/07/22 08:17:43;;;;;;;8.13;5.18;;;;;;;32.67;32.23;95173.38;4999844;28;20198;-65
2022/07/22 08:20:11;;;;;;;7.05;5.18;;;;;;;32.75;32.46;95179.38;4998707;28;20218;-64
2022/07/22 08:22:38;;;;;;;5.25;4.63;;;;;;;32.84;31.62;95179.28;4998990;28;20207;-65
2022/07/22 08:25:05;;;;;;;7.70;5.03;;;;;;;32.96;32.16;95168.06;4999927;28;20224;-65
2022/07/22 08:27:32;;;;;;;8.75;7.80;;;;;;;33.07;31.59;95175.50;4999511;28;20199;-66
2022/07/22 08:30:04;;;;;;;87.28;57.58;;;;;;;33.16;31.32;95172.75;4998921;28;20281;-62
2022/07/22 08:32:31;;;;;;;40.95;29.77;;;;;;;33.05;31.35;95172.22;5000931;28;20211;-64
2022/07/22 08:34:58;;;;;;;42.20;31.40;;;;;;;32.87;31.43;95169.19;4999428;28;20203;-63
2022/07/22 08:37:25;;;;;;;23.77;18.95;;;;;;;32.99;31.67;95167.69;5000428;28;20206;-65
2022/07/22 08:39:53;;;;;;;14.00;10.45;;;;;;;33.21;31.52;95179.06;4996384;28;20302;-65
2022/07/22 08:42:21;;;;;;;11.43;8.85;;;;;;;33.45;30.88;95167.34;4999707;28;20299;-65
2022/07/22 08:44:48;;;;;;;7.85;5.28;;;;;;;33.49;30.25;95167.78;4999013;28;21814;-63
2022/07/22 08:47:21;;;;;;;24.92;13.60;;;;;;;33.65;30.61;95168.34;4998567;28;20207;-66
2022/07/22 08:49:48;;;;;;;13.95;9.57;;;;;;;33.57;30.39;95170.31;4997948;28;20571;-64
2022/07/22 08:52:14;;;;;;;8.80;5.95;;;;;;;33.54;30.14;95166.22;4998698;28;20235;-65
2022/07/22 08:54:41;;;;;;;10.52;5.45;;;;;;;33.61;29.63;95168.94;5000190;28;20210;-63
2022/07/22 08:57:08;;;;;;;48.50;34.67;;;;;;;33.69;30.51;95169.59;5000695;28;20211;-65
2022/07/22 08:59:49;;;;;;;19.38;14.70;;;;;;;33.93;30.40;95176.28;4996895;28;21885;-66
2022/07/22 09:02:18;;;;;;;53.08;40.13;;;;;;;33.87;30.51;95178.88;5000626;28;20240;-65
2022/07/22 09:04:54;;;;;;;31.25;24.45;;;;;;;33.73;30.26;95170.84;4997331;28;20316;-65
2022/07/22 09:07:25;;;;;;;23.13;16.80;;;;;;;33.58;30.37;95177.22;4997210;28;20218;-63
2022/07/22 09:09:52;;;;;;;7.15;6.45;;;;;;;33.44;29.83;95177.06;4995778;28;20211;-64
2022/07/22 09:12:22;;;;;;;10.23;8.25;;;;;;;33.32;30.72;95180.41;4999643;28;20631;-64
2022/07/22 09:14:51;;;;;;;8.70;7.80;;;;;;;33.39;30.52;95176.03;4998959;28;20300;-65
2022/07/22 09:17:27;;;;;;;9.15;6.50;;;;;;;33.55;30.42;95175.75;4999233;28;20202;-70
2022/07/22 09:19:54;;;;;;;9.45;6.28;;;;;;;33.61;30.75;95185.56;4997192;28;20295;-69
2022/07/22 09:22:49;;;;;;;6.70;5.95;;;;;;;33.66;30.74;95171.78;4998912;28;20714;-69
2022/07/22 09:25:22;;;;;;;8.05;6.43;;;;;;;33.78;29.38;95179.03;4945725;28;20229;-67
2022/07/22 09:27:51;;;;;;;54.25;40.67;;;;;;;33.59;29.23;95170.94;4997862;28;20333;-68
2022/07/22 09:30:20;;;;;;;9.73;8.88;;;;;;;33.30;29.42;95185.06;4999177;28;20207;-70
2022/07/22 09:32:50;;;;;;;12.32;9.45;;;;;;;33.40;29.48;95170.59;4998178;28;20894;-69
2022/07/22 09:35:19;;;;;;;11.07;9.93;;;;;;;33.40;29.36;95170.59;4998886;28;20565;-69
2022/07/22 09:37:49;;;;;;;24.00;17.58;;;;;;;33.40;29.85;95170.59;4997581;28;20203;-68
2022/07/22 09:40:18;;;;;;;11.88;8.25;;;;;;;33.54;29.04;95160.13;4998331;28;20203;-69
2022/07/22 09:42:47;;;;;;;8.52;7.47;;;;;;;33.61;28.37;95161.03;4999223;28;20199;-69
2022/07/22 09:45:14;;;;;;;7.10;5.72;;;;;;;33.59;28.99;95166.47;4998760;28;20648;-69
2022/07/22 09:47:43;;;;;;;11.48;7.47;;;;;;;33.55;28.94;95167.84;4996956;28;20215;-69
2022/07/22 09:50:21;;;;;;;4.22;3.92;;;;;;;33.47;28.65;95160.88;4997022;28;20885;-69
2022/07/22 09:52:49;;;;;;;9.20;6.00;;;;;;;33.53;29.40;95153.25;4997617;28;20218;-69
2022/07/22 09:55:17;;;;;;;7.95;5.65;;;;;;;33.63;29.39;95154.56;4997915;28;20206;-69
2022/07/22 09:57:44;;;;;;;8.35;5.57;;;;;;;33.71;28.89;95151.75;4999754;28;20687;-70
2022/07/22 10:00:12;;;;;;;8.48;5.05;;;;;;;33.83;29.48;95161.81;4996096;28;21525;-70
2022/07/22 10:02:45;;;;;;;6.53;6.05;;;;;;;33.88;28.77;95147.06;4998243;28;21411;-71
2022/07/22 10:05:13;;;;;;;5.28;4.90;;;;;;;33.81;29.19;95153.28;5001880;28;20234;-70
2022/07/22 10:07:43;;;;;;;5.07;4.78;;;;;;;33.79;28.45;95153.47;5003350;28;20211;-71
2022/07/22 10:10:12;;;;;;;16.60;5.55;;;;;;;33.75;27.91;95153.00;4999145;28;20203;-69
2022/07/22 10:12:39;;;;;;;7.97;5.80;;;;;;;33.94;27.92;95150.72;5002670;28;20693;-70
2022/07/22 10:15:07;;;;;;;7.47;4.20;;;;;;;34.02;27.83;95147.94;5001259;28;20663;-69
2022/07/22 10:17:36;;;;;;;8.30;4.70;;;;;;;34.00;27.35;95145.50;5003043;28;20715;-69
2022/07/22 10:20:05;;;;;;;19.77;15.98;;;;;;;34.22;27.17;95143.59;5001355;28;21166;-69
2022/07/22 10:22:55;;;;;;;5.00;3.92;;;;;;;34.20;26.22;95142.97;5000464;28;20299;-69
2022/07/22 10:25:24;;;;;;;6.60;4.75;;;;;;;34.16;27.19;95139.09;4999605;28;21248;-69
2022/07/22 10:27:53;;;;;;;5.10;4.70;;;;;;;34.18;27.33;95138.88;5002485;28;20299;-68
2022/07/22 10:30:21;;;;;;;5.57;4.18;;;;;;;33.94;27.23;95137.53;5000825;28;20204;-68
2022/07/22 10:33:07;;;;;;;5.88;4.95;;;;;;;34.00;27.68;95129.69;5002107;28;20215;-71
2022/07/22 10:35:36;;;;;;;4.47;4.18;;;;;;;34.08;27.37;95128.72;5001898;28;20211;-70
2022/07/22 10:38:07;;;;;;;4.88;4.55;;;;;;;34.10;27.59;95134.63;5002655;28;20244;-68
2022/07/22 10:40:48;;;;;;;13.50;5.30;;;;;;;34.29;28.17;95128.66;5000931;28;20260;-69
2022/07/22 10:43:16;;;;;;;4.53;4.22;;;;;;;34.43;27.87;95125.03;5006862;28;20237;-70
2022/07/22 10:45:46;;;;;;;8.07;4.90;;;;;;;34.42;27.16;95131.34;5004972;28;20236;-69
2022/07/22 10:48:16;;;;;;;6.57;4.35;;;;;;;34.51;27.37;95132.00;5001138;28;20215;-69
2022/07/22 10:50:51;;;;;;;7.22;4.40;;;;;;;34.41;27.67;95126.25;4998994;28;20612;-70
2022/07/22 10:53:22;;;;;;;4.88;4.32;;;;;;;34.39;27.66;95123.84;4999554;28;20332;-69
2022/07/22 10:56:04;;;;;;;5.35;4.53;;;;;;;34.26;27.02;95126.38;5001127;28;20199;-70
2022/07/22 10:58:42;;;;;;;7.60;4.13;;;;;;;34.31;27.83;95133.72;5001188;28;20937;-69
2022/07/22 11:01:11;;;;;;;4.30;4.00;;;;;;;34.40;27.69;95136.00;4997546;28;20869;-69
2022/07/22 11:03:41;;;;;;;6.45;5.15;;;;;;;34.29;26.95;95125.19;5001277;28;20200;-69
2022/07/22 11:06:19;;;;;;;6.18;5.68;;;;;;;34.35;27.06;95125.25;4999706;28;21148;-69
2022/07/22 11:08:49;;;;;;;6.10;5.40;;;;;;;34.32;27.61;95123.00;5001840;28;20211;-69
2022/07/22 11:11:16;;;;;;;7.53;4.75;;;;;;;34.51;27.97;95125.91;5001443;28;20207;-69
2022/07/22 11:13:44;;;;;;;7.00;5.00;;;;;;;34.64;27.07;95131.25;4999659;28;20208;-70
2022/07/22 11:16:18;;;;;;;12.23;4.07;;;;;;;34.65;26.55;95123.09;4994633;28;20199;-68
2022/07/22 11:18:46;;;;;;;5.85;3.90;;;;;;;34.74;26.16;95116.63;5000209;28;20203;-70
2022/07/22 11:21:16;;;;;;;5.68;5.10;;;;;;;34.67;26.35;95125.53;4999435;28;20210;-68
2022/07/22 11:23:43;;;;;;;5.93;4.53;;;;;;;34.52;25.85;95111.69;5000230;28;20207;-68
2022/07/22 11:26:15;;;;;;;5.90;4.63;;;;;;;34.43;25.94;95114.50;4998765;28;20234;-69
2022/07/22 11:28:42;;;;;;;4.07;3.88;;;;;;;33.69;26.00;95111.59;5000244;28;20767;-68
2022/07/22 11:31:10;;;;;;;5.05;4.53;;;;;;;33.20;27.16;95116.03;4999882;28;20211;-69
2022/07/22 11:33:37;;;;;;;4.63;4.18;;;;;;;33.12;27.30;95114.38;4999587;28;20674;-69